sensor_id;sensor_type;location;lat;lon;timestamp;pressure;altitude;pressure_sealevel;temperature;humidity
64368;BME280;50692;53.314;-6.300;2022-10-16T00:00:14;99541.69;;;8.81;83.21
64368;BME280;50692;53.314;-6.300;2022-10-16T00:03:00;99550.66;;;8.78;83.22
64368;BME280;50692;53.314;-6.300;2022-10-16T00:05:46;99553.66;;;8.72;83.24
64368;BME280;50692;53.314;-6.300;2022-10-16T00:08:32;99541.72;;;8.67;83.36
64368;BME280;50692;53.314;-6.300;2022-10-16T00:11:29;99556.88;;;8.63;83.62
64368;BME280;50692;53.314;-6.300;2022-10-16T00:14:15;99571.75;;;8.64;84.42
64368;BME280;50692;53.314;-6.300;2022-10-16T00:17:01;99569.13;;;8.64;84.73
64368;BME280;50692;53.314;-6.300;2022-10-16T00:19:47;99578.16;;;8.60;85.46
64368;BME280;50692;53.314;-6.300;2022-10-16T00:22:33;99579.00;;;8.60;85.63
64368;BME280;50692;53.314;-6.300;2022-10-16T00:25:18;99587.16;;;8.56;86.02
64368;BME280;50692;53.314;-6.300;2022-10-16T00:28:04;99604.94;;;8.52;85.82
64368;BME280;50692;53.314;-6.300;2022-10-16T00:30:50;99587.28;;;8.54;85.88
64368;BME280;50692;53.314;-6.300;2022-10-16T00:33:38;99600.75;;;8.50;85.95
64368;BME280;50692;53.314;-6.300;2022-10-16T00:36:25;99596.22;;;8.52;85.63
64368;BME280;50692;53.314;-6.300;2022-10-16T00:39:11;99611.28;;;8.50;85.31
64368;BME280;50692;53.314;-6.300;2022-10-16T00:41:57;99607.69;;;8.51;84.88
64368;BME280;50692;53.314;-6.300;2022-10-16T00:44:55;99610.22;;;8.52;84.55
64368;BME280;50692;53.314;-6.300;2022-10-16T00:47:43;99608.63;;;8.50;84.50
64368;BME280;50692;53.314;-6.300;2022-10-16T00:50:33;99604.50;;;8.46;84.33
64368;BME280;50692;53.314;-6.300;2022-10-16T00:53:21;99628.00;;;8.49;84.13
64368;BME280;50692;53.314;-6.300;2022-10-16T00:56:07;99606.28;;;8.45;83.78
64368;BME280;50692;53.314;-6.300;2022-10-16T00:58:53;99631.69;;;8.46;83.50
64368;BME280;50692;53.314;-6.300;2022-10-16T01:01:39;99637.69;;;8.48;82.80
64368;BME280;50692;53.314;-6.300;2022-10-16T01:04:25;99634.31;;;8.46;82.87
64368;BME280;50692;53.314;-6.300;2022-10-16T01:13:07;99630.91;;;8.44;83.49
64368;BME280;50692;53.314;-6.300;2022-10-16T01:16:06;99626.50;;;8.45;83.43
64368;BME280;50692;53.314;-6.300;2022-10-16T01:21:48;99638.09;;;8.42;82.91
64368;BME280;50692;53.314;-6.300;2022-10-16T01:24:40;99628.47;;;8.41;82.56
64368;BME280;50692;53.314;-6.300;2022-10-16T01:27:26;99640.44;;;8.47;81.81
64368;BME280;50692;53.314;-6.300;2022-10-16T01:30:21;99638.75;;;8.46;81.47
64368;BME280;50692;53.314;-6.300;2022-10-16T01:33:15;99646.63;;;8.46;81.43
64368;BME280;50692;53.314;-6.300;2022-10-16T01:36:08;99653.66;;;8.45;81.17
64368;BME280;50692;53.314;-6.300;2022-10-16T01:38:59;99655.38;;;8.46;81.10
64368;BME280;50692;53.314;-6.300;2022-10-16T01:41:53;99655.06;;;8.36;80.41
64368;BME280;50692;53.314;-6.300;2022-10-16T01:44:41;99668.44;;;8.48;80.49
64368;BME280;50692;53.314;-6.300;2022-10-16T01:47:30;99675.88;;;8.41;80.81
64368;BME280;50692;53.314;-6.300;2022-10-16T01:50:18;99684.00;;;8.36;81.20
64368;BME280;50692;53.314;-6.300;2022-10-16T01:53:08;99694.56;;;8.36;81.46
64368;BME280;50692;53.314;-6.300;2022-10-16T01:55:55;99705.38;;;8.32;81.58
64368;BME280;50692;53.314;-6.300;2022-10-16T01:58:47;99709.88;;;8.30;81.88
64368;BME280;50692;53.314;-6.300;2022-10-16T02:01:36;99715.13;;;8.30;81.91
64368;BME280;50692;53.314;-6.300;2022-10-16T02:04:32;99723.31;;;8.25;81.99
64368;BME280;50692;53.314;-6.300;2022-10-16T02:07:19;99692.53;;;8.11;82.43
64368;BME280;50692;53.314;-6.300;2022-10-16T02:10:04;99708.63;;;8.21;82.68
64368;BME280;50692;53.314;-6.300;2022-10-16T02:12:57;99714.81;;;8.20;82.88
64368;BME280;50692;53.314;-6.300;2022-10-16T02:15:44;99721.88;;;8.20;83.05
64368;BME280;50692;53.314;-6.300;2022-10-16T02:18:30;99731.56;;;8.19;83.21
64368;BME280;50692;53.314;-6.300;2022-10-16T02:21:23;99747.69;;;8.13;83.88
64368;BME280;50692;53.314;-6.300;2022-10-16T02:27:33;99748.75;;;8.10;83.64
64368;BME280;50692;53.314;-6.300;2022-10-16T02:33:13;99761.47;;;8.18;82.37
64368;BME280;50692;53.314;-6.300;2022-10-16T02:36:00;99766.72;;;8.18;81.84
64368;BME280;50692;53.314;-6.300;2022-10-16T02:38:46;99773.66;;;8.19;81.56
64368;BME280;50692;53.314;-6.300;2022-10-16T02:41:32;99773.78;;;8.17;81.48
64368;BME280;50692;53.314;-6.300;2022-10-16T02:44:18;99800.16;;;8.16;81.43
64368;BME280;50692;53.314;-6.300;2022-10-16T02:47:04;99783.03;;;8.09;81.72
64368;BME280;50692;53.314;-6.300;2022-10-16T02:49:50;99790.25;;;8.05;81.67
64368;BME280;50692;53.314;-6.300;2022-10-16T02:52:36;99796.34;;;8.06;81.14
64368;BME280;50692;53.314;-6.300;2022-10-16T02:55:22;99798.25;;;8.04;80.35
64368;BME280;50692;53.314;-6.300;2022-10-16T02:58:07;99802.56;;;8.05;79.78
64368;BME280;50692;53.314;-6.300;2022-10-16T03:00:54;99807.84;;;8.05;79.43
64368;BME280;50692;53.314;-6.300;2022-10-16T03:03:40;99819.13;;;8.07;78.55
64368;BME280;50692;53.314;-6.300;2022-10-16T03:06:26;99799.19;;;8.03;77.56
64368;BME280;50692;53.314;-6.300;2022-10-16T03:09:12;99820.94;;;8.06;76.91
64368;BME280;50692;53.314;-6.300;2022-10-16T03:11:58;99814.09;;;8.18;75.82
64368;BME280;50692;53.314;-6.300;2022-10-16T03:14:43;99824.34;;;8.23;75.24
64368;BME280;50692;53.314;-6.300;2022-10-16T03:17:29;99828.88;;;8.21;75.43
64368;BME280;50692;53.314;-6.300;2022-10-16T03:20:16;99823.63;;;8.05;76.35
64368;BME280;50692;53.314;-6.300;2022-10-16T03:23:03;99846.81;;;7.98;77.30
64368;BME280;50692;53.314;-6.300;2022-10-16T03:25:49;99851.56;;;7.91;77.91
64368;BME280;50692;53.314;-6.300;2022-10-16T03:28:34;99854.28;;;7.90;78.71
64368;BME280;50692;53.314;-6.300;2022-10-16T03:31:20;99858.97;;;7.85;79.08
64368;BME280;50692;53.314;-6.300;2022-10-16T03:34:07;99862.03;;;7.77;79.23
64368;BME280;50692;53.314;-6.300;2022-10-16T03:36:53;99866.34;;;7.78;79.16
64368;BME280;50692;53.314;-6.300;2022-10-16T03:39:38;99867.88;;;7.82;78.89
64368;BME280;50692;53.314;-6.300;2022-10-16T03:42:24;99867.75;;;7.84;78.63
64368;BME280;50692;53.314;-6.300;2022-10-16T03:45:11;99884.50;;;7.83;78.75
64368;BME280;50692;53.314;-6.300;2022-10-16T03:47:56;99881.13;;;7.81;78.91
64368;BME280;50692;53.314;-6.300;2022-10-16T03:50:42;99903.00;;;7.81;78.87
64368;BME280;50692;53.314;-6.300;2022-10-16T03:53:28;99893.66;;;7.76;79.27
64368;BME280;50692;53.314;-6.300;2022-10-16T03:56:14;99893.81;;;7.73;79.53
64368;BME280;50692;53.314;-6.300;2022-10-16T03:59:00;99905.28;;;7.72;79.24
64368;BME280;50692;53.314;-6.300;2022-10-16T04:01:45;99908.84;;;7.71;79.03
64368;BME280;50692;53.314;-6.300;2022-10-16T04:04:31;99925.38;;;7.73;78.92
64368;BME280;50692;53.314;-6.300;2022-10-16T04:07:17;99932.28;;;7.75;78.72
64368;BME280;50692;53.314;-6.300;2022-10-16T04:10:04;99951.63;;;7.74;78.58
64368;BME280;50692;53.314;-6.300;2022-10-16T04:12:49;99941.38;;;7.85;78.04
64368;BME280;50692;53.314;-6.300;2022-10-16T04:15:35;99935.16;;;7.86;77.72
64368;BME280;50692;53.314;-6.300;2022-10-16T04:18:21;99963.16;;;7.87;77.53
64368;BME280;50692;53.314;-6.300;2022-10-16T04:21:07;99947.56;;;7.84;77.47
64368;BME280;50692;53.314;-6.300;2022-10-16T04:23:53;99955.97;;;7.91;77.09
64368;BME280;50692;53.314;-6.300;2022-10-16T04:26:39;99978.38;;;7.98;76.93
64368;BME280;50692;53.314;-6.300;2022-10-16T04:29:25;99989.53;;;8.03;76.60
64368;BME280;50692;53.314;-6.300;2022-10-16T04:32:11;99994.94;;;8.00;76.70
64368;BME280;50692;53.314;-6.300;2022-10-16T04:34:57;100003.84;;;7.98;77.10
64368;BME280;50692;53.314;-6.300;2022-10-16T04:37:42;100013.84;;;7.91;77.32
64368;BME280;50692;53.314;-6.300;2022-10-16T04:40:28;100020.06;;;7.90;77.43
64368;BME280;50692;53.314;-6.300;2022-10-16T04:43:14;100027.16;;;7.88;77.61
64368;BME280;50692;53.314;-6.300;2022-10-16T04:46:00;100031.66;;;7.86;77.86
64368;BME280;50692;53.314;-6.300;2022-10-16T04:48:46;100037.03;;;7.84;78.05
64368;BME280;50692;53.314;-6.300;2022-10-16T04:51:32;100042.34;;;7.83;78.05
64368;BME280;50692;53.314;-6.300;2022-10-16T04:54:18;100050.34;;;7.81;77.95
64368;BME280;50692;53.314;-6.300;2022-10-16T04:57:04;100048.56;;;7.82;77.75
64368;BME280;50692;53.314;-6.300;2022-10-16T04:59:50;100061.63;;;7.83;77.36
64368;BME280;50692;53.314;-6.300;2022-10-16T05:02:36;100044.03;;;7.84;77.30
64368;BME280;50692;53.314;-6.300;2022-10-16T05:05:22;100059.78;;;7.85;76.97
64368;BME280;50692;53.314;-6.300;2022-10-16T05:08:08;100061.47;;;7.86;76.87
64368;BME280;50692;53.314;-6.300;2022-10-16T05:10:54;100060.53;;;7.87;76.76
64368;BME280;50692;53.314;-6.300;2022-10-16T05:13:40;100052.56;;;7.89;76.88
64368;BME280;50692;53.314;-6.300;2022-10-16T05:16:26;100048.00;;;7.92;76.88
64368;BME280;50692;53.314;-6.300;2022-10-16T05:19:12;100006.19;;;7.71;76.75
64368;BME280;50692;53.314;-6.300;2022-10-16T05:21:57;100047.59;;;8.00;76.80
64368;BME280;50692;53.314;-6.300;2022-10-16T05:24:43;100043.84;;;8.04;76.84
64368;BME280;50692;53.314;-6.300;2022-10-16T05:27:29;100052.53;;;8.06;76.81
64368;BME280;50692;53.314;-6.300;2022-10-16T05:30:16;100059.31;;;8.10;76.62
64368;BME280;50692;53.314;-6.300;2022-10-16T05:33:02;100055.66;;;8.13;76.78
64368;BME280;50692;53.314;-6.300;2022-10-16T05:35:47;100059.84;;;8.17;76.59
64368;BME280;50692;53.314;-6.300;2022-10-16T05:38:35;100047.75;;;8.13;76.55
64368;BME280;50692;53.314;-6.300;2022-10-16T05:41:20;100068.59;;;8.17;76.80
64368;BME280;50692;53.314;-6.300;2022-10-16T05:44:07;100070.53;;;8.14;76.77
64368;BME280;50692;53.314;-6.300;2022-10-16T05:46:53;100073.50;;;8.08;76.78
64368;BME280;50692;53.314;-6.300;2022-10-16T05:49:38;100073.81;;;8.02;76.75
64368;BME280;50692;53.314;-6.300;2022-10-16T05:52:24;100075.06;;;7.94;76.77
64368;BME280;50692;53.314;-6.300;2022-10-16T05:55:10;100076.94;;;7.92;77.15
64368;BME280;50692;53.314;-6.300;2022-10-16T05:57:56;100089.25;;;7.92;77.15
64368;BME280;50692;53.314;-6.300;2022-10-16T06:00:42;100089.47;;;7.87;77.47
64368;BME280;50692;53.314;-6.300;2022-10-16T06:03:27;100101.72;;;7.88;77.66
64368;BME280;50692;53.314;-6.300;2022-10-16T06:06:15;100113.09;;;7.89;77.91
64368;BME280;50692;53.314;-6.300;2022-10-16T06:09:02;100102.72;;;7.86;78.00
64368;BME280;50692;53.314;-6.300;2022-10-16T06:11:48;100122.38;;;7.96;78.15
64368;BME280;50692;53.314;-6.300;2022-10-16T06:14:34;100118.69;;;7.99;78.30
64368;BME280;50692;53.314;-6.300;2022-10-16T06:17:20;100126.28;;;8.05;78.31
64368;BME280;50692;53.314;-6.300;2022-10-16T06:20:06;100125.97;;;8.11;78.22
64368;BME280;50692;53.314;-6.300;2022-10-16T06:22:51;100120.56;;;8.14;78.21
64368;BME280;50692;53.314;-6.300;2022-10-16T06:25:37;100131.09;;;8.14;78.20
64368;BME280;50692;53.314;-6.300;2022-10-16T06:28:23;100130.31;;;8.12;78.34
64368;BME280;50692;53.314;-6.300;2022-10-16T06:31:10;100143.56;;;8.10;78.34
64368;BME280;50692;53.314;-6.300;2022-10-16T06:33:57;100142.78;;;8.08;78.76
64368;BME280;50692;53.314;-6.300;2022-10-16T06:36:43;100135.38;;;7.99;78.80
64368;BME280;50692;53.314;-6.300;2022-10-16T06:39:29;100152.69;;;8.03;78.73
64368;BME280;50692;53.314;-6.300;2022-10-16T06:42:15;100163.22;;;8.03;78.86
64368;BME280;50692;53.314;-6.300;2022-10-16T06:45:01;100161.44;;;8.04;78.81
64368;BME280;50692;53.314;-6.300;2022-10-16T06:47:47;100175.44;;;8.04;78.88
64368;BME280;50692;53.314;-6.300;2022-10-16T06:50:32;100183.19;;;8.07;78.83
64368;BME280;50692;53.314;-6.300;2022-10-16T06:53:18;100194.47;;;8.09;78.91
64368;BME280;50692;53.314;-6.300;2022-10-16T06:56:12;100189.84;;;8.14;78.72
64368;BME280;50692;53.314;-6.300;2022-10-16T06:58:59;100204.69;;;8.15;78.38
64368;BME280;50692;53.314;-6.300;2022-10-16T07:01:45;100199.38;;;8.00;78.22
64368;BME280;50692;53.314;-6.300;2022-10-16T07:04:30;100221.28;;;8.00;78.24
64368;BME280;50692;53.314;-6.300;2022-10-16T07:07:16;100221.56;;;7.94;78.51
64368;BME280;50692;53.314;-6.300;2022-10-16T07:10:02;100225.19;;;7.91;78.60
64368;BME280;50692;53.314;-6.300;2022-10-16T07:12:48;100239.69;;;7.83;79.27
64368;BME280;50692;53.314;-6.300;2022-10-16T07:15:34;100246.16;;;7.76;79.77
64368;BME280;50692;53.314;-6.300;2022-10-16T07:18:20;100256.69;;;7.76;79.98
64368;BME280;50692;53.314;-6.300;2022-10-16T07:21:07;100262.66;;;7.79;80.03
64368;BME280;50692;53.314;-6.300;2022-10-16T07:23:58;100273.13;;;7.81;80.25
64368;BME280;50692;53.314;-6.300;2022-10-16T07:26:45;100274.72;;;7.83;80.29
64368;BME280;50692;53.314;-6.300;2022-10-16T07:29:31;100281.63;;;7.86;80.25
64368;BME280;50692;53.314;-6.300;2022-10-16T07:32:17;100292.78;;;7.91;80.09
64368;BME280;50692;53.314;-6.300;2022-10-16T07:35:04;100296.81;;;7.98;79.79
64368;BME280;50692;53.314;-6.300;2022-10-16T07:37:50;100304.41;;;8.04;79.42
64368;BME280;50692;53.314;-6.300;2022-10-16T07:40:36;100307.59;;;8.11;79.34
64368;BME280;50692;53.314;-6.300;2022-10-16T07:43:22;100315.97;;;8.19;79.22
64368;BME280;50692;53.314;-6.300;2022-10-16T07:46:07;100316.66;;;8.23;78.90
64368;BME280;50692;53.314;-6.300;2022-10-16T07:48:54;100329.16;;;8.36;78.64
64368;BME280;50692;53.314;-6.300;2022-10-16T07:51:40;100333.91;;;8.47;78.28
64368;BME280;50692;53.314;-6.300;2022-10-16T07:54:26;100342.53;;;8.51;78.11
64368;BME280;50692;53.314;-6.300;2022-10-16T07:57:11;100354.31;;;8.61;78.00
64368;BME280;50692;53.314;-6.300;2022-10-16T08:00:04;100358.34;;;8.68;77.79
64368;BME280;50692;53.314;-6.300;2022-10-16T08:02:50;100364.00;;;8.78;77.45
64368;BME280;50692;53.314;-6.300;2022-10-16T08:05:36;100376.84;;;8.84;77.19
64368;BME280;50692;53.314;-6.300;2022-10-16T08:08:21;100372.81;;;8.94;77.13
64368;BME280;50692;53.314;-6.300;2022-10-16T08:11:08;100375.03;;;9.02;76.99
64368;BME280;50692;53.314;-6.300;2022-10-16T08:13:54;100367.97;;;9.02;76.95
64368;BME280;50692;53.314;-6.300;2022-10-16T08:16:39;100374.31;;;9.16;76.64
64368;BME280;50692;53.314;-6.300;2022-10-16T08:19:25;100366.94;;;9.22;76.44
64368;BME280;50692;53.314;-6.300;2022-10-16T08:22:13;100367.53;;;9.27;76.41
64368;BME280;50692;53.314;-6.300;2022-10-16T08:24:59;100368.06;;;9.34;76.29
64368;BME280;50692;53.314;-6.300;2022-10-16T08:27:44;100366.81;;;9.41;76.27
64368;BME280;50692;53.314;-6.300;2022-10-16T08:30:30;100364.63;;;9.49;75.96
64368;BME280;50692;53.314;-6.300;2022-10-16T08:33:16;100367.00;;;9.54;75.27
64368;BME280;50692;53.314;-6.300;2022-10-16T08:36:04;100364.53;;;9.67;75.10
64368;BME280;50692;53.314;-6.300;2022-10-16T08:38:50;100363.94;;;9.77;74.64
64368;BME280;50692;53.314;-6.300;2022-10-16T08:45:08;100369.34;;;10.07;74.33
64368;BME280;50692;53.314;-6.300;2022-10-16T08:50:57;100372.88;;;10.22;73.62
64368;BME280;50692;53.314;-6.300;2022-10-16T08:53:46;100374.84;;;10.35;72.88
64368;BME280;50692;53.314;-6.300;2022-10-16T08:56:34;100373.38;;;10.45;72.69
64368;BME280;50692;53.314;-6.300;2022-10-16T08:59:19;100378.41;;;10.49;72.41
64368;BME280;50692;53.314;-6.300;2022-10-16T09:05:44;100376.69;;;10.64;71.31
64368;BME280;50692;53.314;-6.300;2022-10-16T09:17:50;100391.19;;;11.01;71.16
64368;BME280;50692;53.314;-6.300;2022-10-16T09:20:49;100401.13;;;11.12;71.18
64368;BME280;50692;53.314;-6.300;2022-10-16T09:23:37;100400.66;;;11.20;71.24
64368;BME280;50692;53.314;-6.300;2022-10-16T09:26:23;100410.88;;;11.26;70.60
64368;BME280;50692;53.314;-6.300;2022-10-16T09:29:12;100416.66;;;11.33;70.32
64368;BME280;50692;53.314;-6.300;2022-10-16T09:32:14;100419.13;;;11.36;69.34
64368;BME280;50692;53.314;-6.300;2022-10-16T09:35:01;100425.75;;;11.43;69.68
64368;BME280;50692;53.314;-6.300;2022-10-16T09:37:50;100421.69;;;11.51;69.62
64368;BME280;50692;53.314;-6.300;2022-10-16T09:40:38;100429.91;;;11.61;69.77
64368;BME280;50692;53.314;-6.300;2022-10-16T09:43:39;100439.00;;;11.71;70.24
64368;BME280;50692;53.314;-6.300;2022-10-16T09:46:30;100438.50;;;11.79;70.12
64368;BME280;50692;53.314;-6.300;2022-10-16T09:49:26;100426.44;;;11.89;70.23
64368;BME280;50692;53.314;-6.300;2022-10-16T09:52:14;100413.34;;;12.00;70.32
64368;BME280;50692;53.314;-6.300;2022-10-16T09:55:15;100423.91;;;12.15;69.96
64368;BME280;50692;53.314;-6.300;2022-10-16T09:58:01;100431.06;;;12.27;69.77
64368;BME280;50692;53.314;-6.300;2022-10-16T10:00:52;100438.50;;;12.35;68.68
64368;BME280;50692;53.314;-6.300;2022-10-16T10:03:40;100430.94;;;12.43;68.80
64368;BME280;50692;53.314;-6.300;2022-10-16T10:06:33;100428.63;;;12.51;68.90
64368;BME280;50692;53.314;-6.300;2022-10-16T10:09:25;100415.56;;;12.48;68.51
64368;BME280;50692;53.314;-6.300;2022-10-16T10:12:25;100423.00;;;12.56;67.31
64368;BME280;50692;53.314;-6.300;2022-10-16T10:15:12;100421.31;;;12.55;67.16
64368;BME280;50692;53.314;-6.300;2022-10-16T10:17:58;100411.88;;;12.51;66.80
64368;BME280;50692;53.314;-6.300;2022-10-16T10:20:45;100409.03;;;12.54;66.91
64368;BME280;50692;53.314;-6.300;2022-10-16T10:23:31;100393.13;;;12.54;66.79
64368;BME280;50692;53.314;-6.300;2022-10-16T10:26:23;100405.41;;;12.55;67.00
64368;BME280;50692;53.314;-6.300;2022-10-16T10:35:23;100396.69;;;12.53;68.21
64368;BME280;50692;53.314;-6.300;2022-10-16T10:38:20;100406.47;;;12.52;68.39
64368;BME280;50692;53.314;-6.300;2022-10-16T10:53:34;100413.69;;;12.50;68.94
64368;BME280;50692;53.314;-6.300;2022-10-16T10:56:45;100432.72;;;12.42;67.70
64368;BME280;50692;53.314;-6.300;2022-10-16T10:59:54;100437.94;;;12.44;67.82
64368;BME280;50692;53.314;-6.300;2022-10-16T11:12:30;100437.50;;;12.23;66.49
64368;BME280;50692;53.314;-6.300;2022-10-16T11:15:29;100442.06;;;12.21;66.48
64368;BME280;50692;53.314;-6.300;2022-10-16T11:18:21;100432.06;;;12.12;66.24
64368;BME280;50692;53.314;-6.300;2022-10-16T11:21:12;100446.81;;;12.16;66.30
64368;BME280;50692;53.314;-6.300;2022-10-16T11:24:09;100451.44;;;12.12;65.48
64368;BME280;50692;53.314;-6.300;2022-10-16T11:27:03;100457.59;;;12.13;65.45
64368;BME280;50692;53.314;-6.300;2022-10-16T11:29:56;100449.84;;;12.10;65.03
64368;BME280;50692;53.314;-6.300;2022-10-16T11:36:11;100452.88;;;12.18;65.14
64368;BME280;50692;53.314;-6.300;2022-10-16T11:39:04;100456.25;;;12.20;65.18
64368;BME280;50692;53.314;-6.300;2022-10-16T11:41:59;100448.97;;;12.23;65.24
64368;BME280;50692;53.314;-6.300;2022-10-16T11:45:00;100449.06;;;12.22;65.24
64368;BME280;50692;53.314;-6.300;2022-10-16T11:47:57;100444.81;;;12.19;64.54
64368;BME280;50692;53.314;-6.300;2022-10-16T11:50:51;100440.28;;;12.21;63.92
64368;BME280;50692;53.314;-6.300;2022-10-16T11:53:59;100433.81;;;12.26;64.39
64368;BME280;50692;53.314;-6.300;2022-10-16T11:56:50;100426.81;;;12.24;63.85
64368;BME280;50692;53.314;-6.300;2022-10-16T11:59:55;100431.06;;;12.27;64.31
64368;BME280;50692;53.314;-6.300;2022-10-16T12:06:27;100409.22;;;12.23;63.55
64368;BME280;50692;53.314;-6.300;2022-10-16T12:09:21;100409.72;;;12.16;62.77
64368;BME280;50692;53.314;-6.300;2022-10-16T12:12:28;100411.81;;;12.11;62.36
64368;BME280;50692;53.314;-6.300;2022-10-16T12:15:30;100380.75;;;11.86;61.90
64368;BME280;50692;53.314;-6.300;2022-10-16T12:18:24;100392.91;;;12.03;61.80
64368;BME280;50692;53.314;-6.300;2022-10-16T12:21:12;100389.00;;;12.08;61.51
64368;BME280;50692;53.314;-6.300;2022-10-16T12:24:03;100384.56;;;12.09;61.11
64368;BME280;50692;53.314;-6.300;2022-10-16T12:26:52;100386.44;;;12.07;61.10
64368;BME280;50692;53.314;-6.300;2022-10-16T12:29:41;100400.75;;;12.04;61.33
64368;BME280;50692;53.314;-6.300;2022-10-16T12:32:36;100395.16;;;12.09;61.81
64368;BME280;50692;53.314;-6.300;2022-10-16T12:35:26;100397.28;;;12.04;60.43
64368;BME280;50692;53.314;-6.300;2022-10-16T12:38:26;100392.72;;;11.91;60.61
64368;BME280;50692;53.314;-6.300;2022-10-16T12:41:30;100408.25;;;11.97;60.65
64368;BME280;50692;53.314;-6.300;2022-10-16T12:44:25;100407.59;;;11.94;61.09
64368;BME280;50692;53.314;-6.300;2022-10-16T12:47:36;100421.41;;;11.85;61.03
64368;BME280;50692;53.314;-6.300;2022-10-16T12:50:35;100400.66;;;11.77;61.04
64368;BME280;50692;53.314;-6.300;2022-10-16T12:53:26;100382.63;;;11.69;61.56
64368;BME280;50692;53.314;-6.300;2022-10-16T13:02:55;100381.84;;;11.67;62.09
64368;BME280;50692;53.314;-6.300;2022-10-16T13:12:12;100357.19;;;11.67;62.55
64368;BME280;50692;53.314;-6.300;2022-10-16T13:21:21;100339.13;;;11.59;63.03
64368;BME280;50692;53.314;-6.300;2022-10-16T13:27:15;100327.88;;;11.56;63.87
64368;BME280;50692;53.314;-6.300;2022-10-16T13:30:19;100319.09;;;11.55;64.25
64368;BME280;50692;53.314;-6.300;2022-10-16T13:36:26;100322.06;;;11.50;65.35
64368;BME280;50692;53.314;-6.300;2022-10-16T13:42:11;100307.09;;;11.49;66.14
64368;BME280;50692;53.314;-6.300;2022-10-16T13:44:59;100297.47;;;11.48;66.30
64368;BME280;50692;53.314;-6.300;2022-10-16T13:47:44;100279.72;;;11.36;66.78
64368;BME280;50692;53.314;-6.300;2022-10-16T13:50:31;100282.63;;;11.46;67.28
64368;BME280;50692;53.314;-6.300;2022-10-16T13:53:16;100263.25;;;11.45;67.93
64368;BME280;50692;53.314;-6.300;2022-10-16T13:56:10;100254.16;;;11.49;69.19
64368;BME280;50692;53.314;-6.300;2022-10-16T13:59:05;100258.41;;;11.52;69.97
64368;BME280;50692;53.314;-6.300;2022-10-16T14:01:53;100256.56;;;11.40;70.60
64368;BME280;50692;53.314;-6.300;2022-10-16T14:04:41;100275.63;;;11.45;70.58
64368;BME280;50692;53.314;-6.300;2022-10-16T14:07:29;100264.50;;;11.40;71.35
64368;BME280;50692;53.314;-6.300;2022-10-16T14:10:26;100234.16;;;11.31;72.17
64368;BME280;50692;53.314;-6.300;2022-10-16T14:13:19;100227.50;;;11.25;71.68
64368;BME280;50692;53.314;-6.300;2022-10-16T14:16:09;100244.03;;;11.29;72.19
64368;BME280;50692;53.314;-6.300;2022-10-16T14:19:04;100238.16;;;11.24;72.31
64368;BME280;50692;53.314;-6.300;2022-10-16T14:21:56;100226.06;;;11.20;72.36
64368;BME280;50692;53.314;-6.300;2022-10-16T14:24:42;100227.56;;;11.24;72.68
64368;BME280;50692;53.314;-6.300;2022-10-16T14:27:33;100217.75;;;11.26;73.20
64368;BME280;50692;53.314;-6.300;2022-10-16T14:30:21;100207.38;;;11.23;73.66
64368;BME280;50692;53.314;-6.300;2022-10-16T14:33:21;100204.72;;;11.23;74.49
64368;BME280;50692;53.314;-6.300;2022-10-16T14:36:12;100196.66;;;11.24;74.66
64368;BME280;50692;53.314;-6.300;2022-10-16T14:39:05;100195.56;;;11.28;74.52
64368;BME280;50692;53.314;-6.300;2022-10-16T14:41:55;100200.72;;;11.30;75.00
64368;BME280;50692;53.314;-6.300;2022-10-16T14:44:42;100197.31;;;11.28;75.18
64368;BME280;50692;53.314;-6.300;2022-10-16T14:47:28;100205.06;;;11.31;75.33
64368;BME280;50692;53.314;-6.300;2022-10-16T14:50:14;100194.28;;;11.34;75.26
64368;BME280;50692;53.314;-6.300;2022-10-16T14:52:59;100190.50;;;11.38;75.34
64368;BME280;50692;53.314;-6.300;2022-10-16T14:55:45;100187.66;;;11.41;75.52
64368;BME280;50692;53.314;-6.300;2022-10-16T14:58:31;100183.22;;;11.42;75.66
64368;BME280;50692;53.314;-6.300;2022-10-16T15:01:18;100172.44;;;11.45;75.88
64368;BME280;50692;53.314;-6.300;2022-10-16T15:04:04;100162.59;;;11.47;75.89
64368;BME280;50692;53.314;-6.300;2022-10-16T15:06:49;100156.34;;;11.48;76.43
64368;BME280;50692;53.314;-6.300;2022-10-16T15:09:35;100151.81;;;11.50;77.10
64368;BME280;50692;53.314;-6.300;2022-10-16T15:12:21;100140.72;;;11.58;77.13
64368;BME280;50692;53.314;-6.300;2022-10-16T15:18:08;100124.78;;;11.72;76.83
64368;BME280;50692;53.314;-6.300;2022-10-16T15:20:54;100105.16;;;11.74;76.63
64368;BME280;50692;53.314;-6.300;2022-10-16T15:23:39;100102.88;;;11.83;76.31
64368;BME280;50692;53.314;-6.300;2022-10-16T15:26:27;100094.63;;;11.87;75.76
64368;BME280;50692;53.314;-6.300;2022-10-16T15:29:13;100088.38;;;11.88;75.25
64368;BME280;50692;53.314;-6.300;2022-10-16T15:31:59;100083.84;;;11.90;74.91
64368;BME280;50692;53.314;-6.300;2022-10-16T15:34:45;100079.19;;;11.94;74.92
64368;BME280;50692;53.314;-6.300;2022-10-16T15:37:31;100072.19;;;11.93;74.78
64368;BME280;50692;53.314;-6.300;2022-10-16T15:40:18;100071.75;;;11.99;75.22
64368;BME280;50692;53.314;-6.300;2022-10-16T15:43:04;100073.56;;;11.98;74.90
64368;BME280;50692;53.314;-6.300;2022-10-16T15:46:04;100064.78;;;11.98;75.02
64368;BME280;50692;53.314;-6.300;2022-10-16T15:48:55;100047.50;;;11.92;75.06
64368;BME280;50692;53.314;-6.300;2022-10-16T15:51:42;100039.88;;;11.88;75.73
64368;BME280;50692;53.314;-6.300;2022-10-16T15:54:28;100054.06;;;11.87;76.62
64368;BME280;50692;53.314;-6.300;2022-10-16T15:57:13;100043.78;;;11.82;78.17
64368;BME280;50692;53.314;-6.300;2022-10-16T15:59:59;100031.66;;;11.78;79.05
64368;BME280;50692;53.314;-6.300;2022-10-16T16:02:50;100025.00;;;11.72;80.41
64368;BME280;50692;53.314;-6.300;2022-10-16T16:05:38;100026.06;;;11.70;81.24
64368;BME280;50692;53.314;-6.300;2022-10-16T16:08:25;100014.41;;;11.60;82.19
64368;BME280;50692;53.314;-6.300;2022-10-16T16:11:13;100010.06;;;11.59;84.16
64368;BME280;50692;53.314;-6.300;2022-10-16T16:13:59;99999.81;;;11.54;84.86
64368;BME280;50692;53.314;-6.300;2022-10-16T16:16:45;100004.25;;;11.53;85.64
64368;BME280;50692;53.314;-6.300;2022-10-16T16:19:31;100007.31;;;11.47;86.82